LIBF/FOG METAR and TAF weather

Enter ICAO airport designator
Station Type Date Time Source
LIBF METAR 2021/05/06 15:50 UTC NOAA

LIBF 061550Z 24015KT CAVOK 23/09 Q1012


Station Type Date Time Source
LIBF Decoded METAR 2021/05/06 15:50 UTC NOAA

Station name not available
May 06, 2021 - 11:50 AM EDT / 2021.05.06 1550 UTC
Wind: from the WSW (240 degrees) at 17 MPH (15 KT):0
Visibility: greater than 7 mile(s):0
Temperature: 73 F (23 C)
Dew Point: 48 F (9 C)
Relative Humidity: 40%
Pressure (altimeter): 29.88 in. Hg (1012 hPa)
ob: LIBF 061550Z 24015KT CAVOK 23/09 Q1012
cycle: 16

Station Type Date Time Source
LIBF TAF 2015/04/03 06:00 UTC NOAA

TAF LIBF 030500Z 0306/0406 35014KT 9999 FEW030

Example: see airport list